createdAt,value
2019-01-12T00:01:19.211Z,95190.48
2019-01-12T00:03:49.456Z,95185.59
2019-01-12T00:06:19.675Z,95193.27
2019-01-12T00:08:49.835Z,95200.78
2019-01-12T00:11:20.010Z,95202.58
2019-01-12T00:13:50.257Z,95209.91
2019-01-12T00:16:21.489Z,95218.59
2019-01-12T00:21:28.491Z,95225.50
2019-01-12T00:23:58.738Z,95226.69
2019-01-12T00:26:28.979Z,95233.88
2019-01-12T00:28:59.125Z,95234.32
2019-01-12T00:31:29.263Z,95232.72
2019-01-12T00:33:59.553Z,95224.21
2019-01-12T00:36:29.715Z,95223.95
2019-01-12T00:38:59.994Z,95223.17
2019-01-12T00:41:30.351Z,95221.09
2019-01-12T00:44:00.525Z,95214.83
2019-01-12T00:46:30.693Z,95220.44
2019-01-12T00:49:00.952Z,95217.30
2019-01-12T00:51:31.206Z,95209.41
2019-01-12T00:54:01.349Z,95210.22
2019-01-12T00:56:31.513Z,95216.30
2019-01-12T00:59:01.752Z,95222.73
2019-01-12T01:01:31.996Z,95224.30
2019-01-12T01:04:02.136Z,95225.90
2019-01-12T01:06:32.291Z,95214.45
2019-01-12T01:09:02.557Z,95219.56
2019-01-12T01:11:32.824Z,95217.05
2019-01-12T01:14:02.989Z,95212.25
2019-01-12T01:16:33.237Z,95213.02
2019-01-12T01:19:03.382Z,95211.34
2019-01-12T01:21:33.805Z,95201.29
2019-01-12T01:24:04.155Z,95207.47
2019-01-12T01:26:34.391Z,95204.99
2019-01-12T01:29:04.720Z,95208.96
2019-01-12T01:31:34.888Z,95206.70
2019-01-12T01:34:05.134Z,95210.50
2019-01-12T01:36:35.394Z,95216.16
2019-01-12T01:39:25.699Z,95209.73
2019-01-12T01:41:55.935Z,95214.63
2019-01-12T01:44:26.259Z,95196.66
2019-01-12T01:46:56.496Z,95196.20
2019-01-12T01:49:26.638Z,95197.42
2019-01-12T01:51:56.792Z,95196.55
2019-01-12T01:54:27.049Z,95196.34
2019-01-12T01:56:57.206Z,95191.10
2019-01-12T01:59:27.575Z,95188.76
2019-01-12T02:01:57.800Z,95188.56
2019-01-12T02:07:25.902Z,95182.59
2019-01-12T02:09:56.348Z,95180.35
2019-01-12T02:12:46.859Z,95171.06
2019-01-12T02:15:17.084Z,95159.97
2019-01-12T02:17:47.353Z,95156.59
2019-01-12T02:20:17.644Z,95150.33
2019-01-12T02:22:47.921Z,95140.45
2019-01-12T02:25:18.061Z,95132.91
2019-01-12T02:27:48.205Z,95137.84
2019-01-12T02:30:24.469Z,95133.46
2019-01-12T02:32:55.583Z,95130.42
2019-01-12T02:35:25.722Z,95123.38
2019-01-12T02:37:55.892Z,95116.28
2019-01-12T02:40:26.139Z,95116.63
2019-01-12T02:42:56.371Z,95102.96
2019-01-12T02:45:26.521Z,95099.77
2019-01-12T02:47:56.665Z,95093.41
2019-01-12T02:50:26.911Z,95092.73
2019-01-12T02:52:57.148Z,95087.93
2019-01-12T02:55:27.280Z,95075.19
2019-01-12T02:57:57.458Z,95065.39
2019-01-12T03:00:27.708Z,95066.35
2019-01-12T03:02:57.970Z,95076.09
2019-01-12T03:05:28.120Z,95075.84
2019-01-12T03:07:58.261Z,95071.19
2019-01-12T03:10:28.502Z,95078.47
2019-01-12T03:12:58.746Z,95071.69
2019-01-12T03:18:04.609Z,95071.61
2019-01-12T03:20:34.968Z,95072.82
2019-01-12T03:23:05.095Z,95067.31
2019-01-12T03:25:35.276Z,95062.64
2019-01-12T03:28:05.510Z,95074.31
2019-01-12T03:30:36.533Z,95075.47
2019-01-12T03:33:07.648Z,95074.12
2019-01-12T03:35:37.861Z,95074.00
2019-01-12T03:38:08.199Z,95083.83
2019-01-12T03:40:38.387Z,95084.58
2019-01-12T03:43:08.562Z,95078.39
2019-01-12T03:45:38.767Z,95081.66
2019-01-12T03:48:09.119Z,95090.70
2019-01-12T03:50:39.323Z,95084.25
2019-01-12T03:53:09.547Z,95086.98
2019-01-12T03:55:39.752Z,95081.22
2019-01-12T03:58:09.961Z,95085.25
2019-01-12T04:00:40.160Z,95091.50
2019-01-12T04:03:10.414Z,95081.60
2019-01-12T04:05:40.622Z,95083.02
2019-01-12T04:08:10.792Z,95087.84
2019-01-12T04:10:41.007Z,95096.06
2019-01-12T04:13:11.267Z,95096.11
2019-01-12T04:15:41.482Z,95094.77
2019-01-12T04:18:11.626Z,95096.55
2019-01-12T04:20:41.852Z,95097.66
2019-01-12T04:23:12.099Z,95093.70
2019-01-12T04:25:42.297Z,95092.98
2019-01-12T04:28:12.443Z,95092.25
2019-01-12T04:30:42.644Z,95090.04
2019-01-12T04:35:48.975Z,95090.21
2019-01-12T04:38:19.309Z,95083.17
2019-01-12T04:40:49.563Z,95085.75
2019-01-12T04:43:19.721Z,95085.80
2019-01-12T04:45:49.974Z,95091.12
2019-01-12T04:48:20.240Z,95094.38
2019-01-12T04:50:50.782Z,95099.39
2019-01-12T04:53:20.953Z,95098.33
2019-01-12T04:55:51.126Z,95097.52
2019-01-12T04:58:21.397Z,95101.66
2019-01-12T05:00:51.635Z,95109.44
2019-01-12T05:03:21.794Z,95114.75
2019-01-12T05:05:52.039Z,95112.26
2019-01-12T05:08:22.310Z,95115.98
2019-01-12T05:10:52.588Z,95104.41
2019-01-12T05:13:22.745Z,95108.06
2019-01-12T05:15:52.914Z,95110.15
2019-01-12T05:18:23.175Z,95126.53
2019-01-12T05:20:53.406Z,95105.63
2019-01-12T05:23:23.552Z,95099.45
2019-01-12T05:25:53.725Z,95108.73
2019-01-12T05:28:23.970Z,95111.03
2019-01-12T05:30:54.207Z,95113.77
2019-01-12T05:33:24.356Z,95116.26
2019-01-12T05:35:54.534Z,95114.25
2019-01-12T05:38:24.789Z,95106.41
2019-01-12T05:40:55.040Z,95109.15
2019-01-12T05:43:25.204Z,95114.64
2019-01-12T05:45:55.366Z,95117.56
2019-01-12T05:48:25.621Z,95116.25
2019-01-12T05:50:55.874Z,95114.77
2019-01-12T05:53:26.013Z,95107.55
2019-01-12T05:55:58.087Z,95110.11
2019-01-12T06:01:04.277Z,95120.72
2019-01-12T06:03:34.637Z,95119.27
2019-01-12T06:06:24.945Z,95125.39
2019-01-12T06:08:55.193Z,95127.58
2019-01-12T06:11:25.347Z,95127.29
2019-01-12T06:13:55.671Z,95114.69
2019-01-12T06:16:25.912Z,95112.84
2019-01-12T06:18:56.058Z,95112.75
2019-01-12T06:21:26.204Z,95113.98
2019-01-12T06:23:56.443Z,95115.34
2019-01-12T06:26:26.700Z,95117.20
2019-01-12T06:28:56.851Z,95110.39
2019-01-12T06:31:27.023Z,95109.98
2019-01-12T06:33:57.306Z,95124.12
2019-01-12T06:36:27.580Z,95126.82
2019-01-12T06:38:57.736Z,95131.73
2019-01-12T06:41:27.995Z,95119.21
2019-01-12T06:43:58.155Z,95112.83
2019-01-12T06:46:28.314Z,95119.80
2019-01-12T06:48:58.570Z,95111.25
2019-01-12T06:51:28.815Z,95120.53
2019-01-12T06:53:58.974Z,95132.50
2019-01-12T06:56:29.131Z,95126.12
2019-01-12T06:58:59.444Z,95126.87
2019-01-12T07:01:29.713Z,95128.02
2019-01-12T07:03:59.870Z,95123.28
2019-01-12T07:06:29.990Z,95112.26
2019-01-12T07:11:36.050Z,95110.13
2019-01-12T07:14:06.276Z,95109.31
2019-01-12T07:16:36.493Z,95116.19
2019-01-12T07:19:06.774Z,95118.27
2019-01-12T07:21:36.989Z,95113.80
2019-01-12T07:24:07.322Z,95112.49
2019-01-12T07:26:37.619Z,95122.94
2019-01-12T07:29:07.874Z,95127.53
2019-01-12T07:31:38.067Z,95132.72
2019-01-12T07:34:08.395Z,95136.66
2019-01-12T07:36:38.707Z,95141.44
2019-01-12T07:39:09.837Z,95144.19
2019-01-12T07:41:40.009Z,95137.22
2019-01-12T07:44:10.281Z,95135.70
2019-01-12T07:46:40.560Z,95142.81
2019-01-12T07:49:10.796Z,95145.89
2019-01-12T07:51:41.002Z,95132.29
2019-01-12T07:54:11.431Z,95124.92
2019-01-12T07:56:41.670Z,95122.43
2019-01-12T07:59:11.824Z,95116.34
2019-01-12T08:01:42.041Z,95111.55
2019-01-12T08:04:12.291Z,95114.70
2019-01-12T08:06:42.516Z,95108.37
2019-01-12T08:09:12.668Z,95107.47
2019-01-12T08:11:42.962Z,95095.55
2019-01-12T08:14:13.210Z,95098.25
2019-01-12T08:16:43.455Z,95090.45
2019-01-12T08:19:13.620Z,95090.16
2019-01-12T08:21:43.806Z,95098.36
2019-01-12T08:24:14.075Z,95106.41
2019-01-12T08:26:44.394Z,95107.83
2019-01-12T08:29:14.570Z,95118.05
2019-01-12T08:31:44.731Z,95125.55
2019-01-12T08:34:14.980Z,95131.41
2019-01-12T08:36:45.247Z,95127.72
2019-01-12T08:39:15.458Z,95124.78
2019-01-12T08:41:45.735Z,95123.53
2019-01-12T08:44:15.919Z,95118.38
2019-01-12T08:46:46.144Z,95112.04
2019-01-12T08:49:23.350Z,95100.87
2019-01-12T08:51:53.857Z,95084.52
2019-01-12T08:54:24.128Z,95083.44
2019-01-12T08:56:54.394Z,95076.63
2019-01-12T08:59:26.172Z,95069.25
2019-01-12T09:01:56.468Z,95057.08
2019-01-12T09:04:26.642Z,95058.29
2019-01-12T09:06:56.972Z,95054.87
2019-01-12T09:09:27.224Z,95051.31
2019-01-12T09:11:57.484Z,95054.23
2019-01-12T09:14:27.625Z,95048.61
2019-01-12T09:16:57.786Z,95043.02
2019-01-12T09:19:28.046Z,95036.11
2019-01-12T09:21:58.232Z,95020.79
2019-01-12T09:27:28.331Z,95012.94
2019-01-12T09:44:51.386Z,94962.23
2019-01-12T09:53:33.192Z,94937.12
2019-01-12T09:59:06.550Z,94925.81
2019-01-12T10:07:51.975Z,94907.41
2019-01-12T10:13:56.191Z,94911.14
2019-01-12T10:19:32.161Z,94895.39
2019-01-12T10:28:13.660Z,94890.91
2019-01-12T10:30:44.852Z,94893.68
2019-01-12T10:44:55.884Z,94858.92
2019-01-12T10:50:41.793Z,94853.92
2019-01-12T10:55:58.368Z,94854.38
2019-01-12T11:01:47.019Z,94844.22
2019-01-12T11:04:39.993Z,94846.33
2019-01-12T11:07:27.111Z,94833.16
2019-01-12T11:16:11.309Z,94835.38
2019-01-12T11:27:57.993Z,94815.69
2019-01-12T11:33:47.140Z,94809.23
2019-01-12T11:39:42.114Z,94806.56
2019-01-12T12:07:09.666Z,94771.01
2019-01-12T12:09:58.897Z,94764.56
2019-01-12T12:13:07.899Z,94764.25
2019-01-12T12:18:47.768Z,94769.12
2019-01-12T12:24:47.126Z,94749.81
2019-01-12T12:33:36.749Z,94729.90
2019-01-12T12:59:24.372Z,94703.86
2019-01-12T13:01:54.648Z,94700.14
2019-01-12T13:04:25.171Z,94696.20
2019-01-12T13:07:15.481Z,94695.36
2019-01-12T13:13:01.578Z,94694.52
2019-01-12T13:15:31.948Z,94687.53
2019-01-12T13:18:02.205Z,94683.27
2019-01-12T13:20:32.391Z,94695.92
2019-01-12T13:23:02.717Z,94698.17
2019-01-12T13:25:32.883Z,94695.83
2019-01-12T13:28:03.086Z,94696.92
2019-01-12T13:39:01.126Z,94703.80
2019-01-12T13:41:31.378Z,94703.48
2019-01-12T13:44:01.652Z,94702.64
2019-01-12T13:46:31.974Z,94699.41
2019-01-12T13:49:02.124Z,94702.52
2019-01-12T13:51:32.272Z,94696.33
2019-01-12T13:54:02.674Z,94696.92
2019-01-12T13:59:53.836Z,94696.17
2019-01-12T14:02:49.007Z,94694.37
2019-01-12T14:08:14.872Z,94703.17
2019-01-12T14:10:45.165Z,94697.66
2019-01-12T14:13:15.374Z,94697.28
2019-01-12T14:15:45.633Z,94697.98
2019-01-12T14:18:22.420Z,94692.38
2019-01-12T14:23:23.420Z,94693.88
2019-01-12T14:25:53.700Z,94705.78
2019-01-12T14:28:23.954Z,94702.98
2019-01-12T14:30:54.119Z,94704.95
2019-01-12T14:33:24.294Z,94699.84
2019-01-12T14:35:54.548Z,94702.87
2019-01-12T14:38:24.810Z,94709.17
2019-01-12T14:40:55.010Z,94708.67
2019-01-12T14:43:25.217Z,94711.36
2019-01-12T14:45:55.526Z,94711.57
2019-01-12T14:48:25.824Z,94716.45
2019-01-12T14:50:56.040Z,94721.55
2019-01-12T14:53:26.327Z,94719.14
2019-01-12T14:55:56.503Z,94730.53
2019-01-12T14:58:26.668Z,94724.73
2019-01-12T15:00:56.925Z,94735.50
2019-01-12T15:03:27.158Z,94737.75
2019-01-12T15:05:57.328Z,94733.00
2019-01-12T15:08:27.496Z,94727.39
2019-01-12T15:10:57.765Z,94725.33
2019-01-12T15:13:28.012Z,94725.19
2019-01-12T15:15:58.473Z,94734.37
2019-01-12T15:18:28.625Z,94731.56
2019-01-12T15:20:58.904Z,94730.64
2019-01-12T15:23:29.288Z,94736.35
2019-01-12T15:28:35.005Z,94739.56
2019-01-12T15:31:05.301Z,94730.33
2019-01-12T15:33:35.587Z,94734.12
2019-01-12T15:36:05.850Z,94735.03
2019-01-12T15:38:36.039Z,94731.08
2019-01-12T15:41:06.334Z,94726.43
2019-01-12T15:43:36.627Z,94728.81
2019-01-12T15:46:06.810Z,94740.00
2019-01-12T15:48:37.005Z,94744.17
2019-01-12T15:51:07.266Z,94736.11
2019-01-12T15:53:37.600Z,94739.57
2019-01-12T15:56:07.788Z,94739.81
2019-01-12T15:58:38.082Z,94748.34
2019-01-12T16:01:08.414Z,94752.23
2019-01-12T16:03:38.695Z,94752.47
2019-01-12T16:06:08.880Z,94755.49
2019-01-12T16:08:39.087Z,94758.36
2019-01-12T16:11:09.399Z,94763.27
2019-01-12T16:13:39.607Z,94758.77
2019-01-12T16:16:09.924Z,94768.05
2019-01-12T16:18:42.953Z,94768.41
2019-01-12T16:21:13.168Z,94763.23
2019-01-12T16:23:43.370Z,94771.31
2019-01-12T16:26:13.744Z,94768.67
2019-01-12T16:28:46.730Z,94771.72
2019-01-12T16:31:17.073Z,94766.75
2019-01-12T16:33:47.387Z,94773.94
2019-01-12T16:36:17.667Z,94774.09
2019-01-12T16:38:47.956Z,94779.63
2019-01-12T16:41:18.707Z,94782.89
2019-01-12T16:43:50.152Z,94774.66
2019-01-12T16:46:20.435Z,94777.22
2019-01-12T16:48:50.706Z,94775.64
2019-01-12T16:51:20.885Z,94776.02
2019-01-12T16:53:51.161Z,94787.06
2019-01-12T16:56:21.350Z,94787.87
2019-01-12T16:58:51.509Z,94777.57
2019-01-12T17:01:21.771Z,94782.77
2019-01-12T17:03:52.098Z,94785.70
2019-01-12T17:06:22.243Z,94787.42
2019-01-12T17:08:52.422Z,94792.08
2019-01-12T17:11:22.713Z,94795.62
2019-01-12T17:13:52.992Z,94793.83
2019-01-12T17:16:23.163Z,94800.47
2019-01-12T17:18:53.335Z,94810.45
2019-01-12T17:21:23.598Z,94808.25
2019-01-12T17:23:53.978Z,94813.20
2019-01-12T17:26:24.149Z,94809.34
2019-01-12T17:28:54.326Z,94815.55
2019-01-12T17:31:24.970Z,94820.95
2019-01-12T17:33:55.132Z,94824.39
2019-01-12T17:36:25.390Z,94825.48
2019-01-12T17:38:55.636Z,94821.70
2019-01-12T17:41:25.811Z,94825.34
2019-01-12T17:46:32.367Z,94819.17
2019-01-12T17:49:02.765Z,94835.33
2019-01-12T17:51:32.921Z,94827.40
2019-01-12T17:54:03.107Z,94827.43
2019-01-12T17:56:33.391Z,94829.55
2019-01-12T17:59:03.655Z,94828.38
2019-01-12T18:01:33.834Z,94830.75
2019-01-12T18:04:03.896Z,94828.86
2019-01-12T18:06:34.274Z,94833.59
2019-01-12T18:12:03.980Z,94832.30
2019-01-12T18:14:34.203Z,94836.12
2019-01-12T18:17:04.426Z,94841.55
2019-01-12T18:19:34.577Z,94839.13
2019-01-12T18:22:04.874Z,94840.37
2019-01-12T18:24:35.106Z,94846.06
2019-01-12T18:27:05.298Z,94836.79
2019-01-12T18:29:35.501Z,94843.00
2019-01-12T18:32:05.736Z,94845.11
2019-01-12T18:34:36.026Z,94841.41
2019-01-12T18:37:06.689Z,94847.83
2019-01-12T18:39:36.953Z,94848.07
2019-01-12T18:42:07.179Z,94849.47
2019-01-12T18:44:37.495Z,94853.96
2019-01-12T18:47:07.771Z,94854.18
2019-01-12T18:49:37.931Z,94858.84
2019-01-12T18:52:08.188Z,94864.02
2019-01-12T18:54:38.541Z,94868.80
2019-01-12T18:57:08.754Z,94872.13
2019-01-12T18:59:38.993Z,94865.99
2019-01-12T19:02:09.175Z,94855.19
2019-01-12T19:04:39.319Z,94862.08
2019-01-12T19:07:09.505Z,94866.09
2019-01-12T19:09:39.763Z,94860.02
2019-01-12T19:14:46.068Z,94858.92
2019-01-12T19:17:16.373Z,94860.15
2019-01-12T19:19:46.686Z,94861.55
2019-01-12T19:22:16.950Z,94864.77
2019-01-12T19:24:47.151Z,94867.71
2019-01-12T19:27:17.354Z,94864.52
2019-01-12T19:29:47.616Z,94871.87
2019-01-12T19:32:17.868Z,94868.57
2019-01-12T19:34:48.041Z,94870.92
2019-01-12T19:37:18.302Z,94872.75
2019-01-12T19:39:48.492Z,94874.87
2019-01-12T19:42:18.750Z,94875.07
2019-01-12T19:44:49.007Z,94878.68
2019-01-12T19:47:19.327Z,94880.25
2019-01-12T19:49:49.500Z,94881.03
2019-01-12T19:52:19.677Z,94885.94
2019-01-12T19:54:49.937Z,94889.41
2019-01-12T19:57:20.196Z,94889.13
2019-01-12T19:59:50.372Z,94898.05
2019-01-12T20:02:20.532Z,94893.22
2019-01-12T20:04:50.819Z,94902.48
2019-01-12T20:07:21.072Z,94906.64
2019-01-12T20:09:51.232Z,94914.94
2019-01-12T20:12:21.502Z,94907.77
2019-01-12T20:14:52.016Z,94905.97
2019-01-12T20:17:22.199Z,94915.84
2019-01-12T20:19:52.458Z,94915.83
2019-01-12T20:22:22.817Z,94917.42
2019-01-12T20:24:52.998Z,94918.13
2019-01-12T20:27:23.169Z,94918.96
2019-01-12T20:29:53.435Z,94912.16
2019-01-12T20:33:01.151Z,94907.02
2019-01-12T20:38:54.504Z,94907.53
2019-01-12T20:44:50.161Z,94903.20
2019-01-12T20:47:57.985Z,94891.55
2019-01-12T20:50:53.668Z,94897.33
2019-01-12T20:53:46.322Z,94891.74
2019-01-12T20:56:39.267Z,94898.41
2019-01-12T20:59:47.095Z,94887.95
2019-01-12T21:05:43.888Z,94878.98
2019-01-12T21:08:36.925Z,94883.87
2019-01-12T21:11:53.723Z,94891.73
2019-01-12T21:14:46.856Z,94895.41
2019-01-12T21:17:18.876Z,94899.25
2019-01-12T21:19:49.188Z,94891.14
2019-01-12T21:22:19.337Z,94893.90
2019-01-12T21:24:49.498Z,94895.81
2019-01-12T21:27:19.766Z,94894.16
2019-01-12T21:29:50.016Z,94897.45
2019-01-12T21:32:20.191Z,94892.93
2019-01-12T21:34:50.394Z,94894.22
2019-01-12T21:37:20.668Z,94904.16
2019-01-12T21:39:50.922Z,94903.36
2019-01-12T21:42:21.089Z,94901.53
2019-01-12T21:44:51.294Z,94906.71
2019-01-12T21:47:21.675Z,94916.80
2019-01-12T21:49:51.921Z,94913.55
2019-01-12T21:52:22.100Z,94909.59
2019-01-12T21:54:52.504Z,94908.61
2019-01-12T21:57:22.671Z,94912.52
2019-01-12T21:59:52.842Z,94898.73
2019-01-12T22:02:23.089Z,94907.38
2019-01-12T22:04:53.323Z,94906.63
2019-01-12T22:07:23.521Z,94906.61
2019-01-12T22:09:53.698Z,94902.55
2019-01-12T22:12:23.988Z,94902.89
2019-01-12T22:14:54.233Z,94904.58
2019-01-12T22:17:24.585Z,94900.67
2019-01-12T22:19:54.792Z,94900.78
2019-01-12T22:22:25.057Z,94904.00
2019-01-12T22:24:55.430Z,94906.23
2019-01-12T22:27:25.641Z,94903.86
2019-01-12T22:29:55.806Z,94902.80
2019-01-12T22:32:26.061Z,94905.05
2019-01-12T22:34:56.238Z,94899.58
2019-01-12T22:37:27.229Z,94905.65
2019-01-12T22:39:58.794Z,94903.41
2019-01-12T22:42:28.945Z,94897.85
2019-01-12T22:44:59.141Z,94897.38
2019-01-12T22:47:29.444Z,94907.58
2019-01-12T22:49:59.715Z,94894.77
2019-01-12T22:52:29.902Z,94900.70
2019-01-12T22:55:00.226Z,94909.07
2019-01-12T22:57:30.555Z,94904.17
2019-01-12T23:00:00.783Z,94905.34
2019-01-12T23:02:31.195Z,94905.88
2019-01-12T23:05:01.422Z,94906.59
2019-01-12T23:07:31.717Z,94909.07
2019-01-12T23:10:01.972Z,94917.94
2019-01-12T23:12:32.192Z,94919.80
2019-01-12T23:15:02.539Z,94915.97
2019-01-12T23:17:32.684Z,94921.18
2019-01-12T23:20:02.857Z,94927.76
2019-01-12T23:22:33.116Z,94927.35
2019-01-12T23:25:03.354Z,94930.80
2019-01-12T23:27:33.534Z,94926.97
2019-01-12T23:30:04.713Z,94932.61
2019-01-12T23:38:07.582Z,94937.72
2019-01-12T23:40:37.727Z,94942.52
2019-01-12T23:43:08.099Z,94946.61
2019-01-12T23:45:38.351Z,94938.39
2019-01-12T23:48:08.496Z,94684.56
2019-01-12T23:50:38.669Z,94939.27
2019-01-12T23:53:08.931Z,94927.88
2019-01-12T23:55:39.098Z,94930.87
2019-01-12T23:58:09.370Z,94932.70
